Time;durP1;ratioP1;P1;durP2;ratioP2;P2;SDS_P1;SDS_P2;PMS_P1;PMS_P2;Temp;Humidity;BMP_temperature;BMP_pressure;BME280_temperature;BME280_humidity;BME280_pressure;Samples;Min_cycle;Max_cycle;Signal;HPM_P1;HPM_P2
2023/07/27 00:00:01;;;;;;;5.45;4.35;;;;;;;;;;4996656;28;20042;-72
2023/07/27 00:02:27;;;;;;;6.65;4.75;;;;;;;;;;5000704;28;20045;-72
2023/07/27 00:04:53;;;;;;;5.60;4.32;;;;;;;;;;5001631;28;20049;-72
2023/07/27 00:07:19;;;;;;;7.05;4.95;;;;;;;;;;5006821;28;20188;-71
2023/07/27 00:09:45;;;;;;;7.30;4.63;;;;;;;;;;5011334;28;20513;-72
2023/07/27 00:12:11;;;;;;;6.90;4.78;;;;;;;;;;5013606;28;20474;-72
2023/07/27 00:14:37;;;;;;;6.22;4.43;;;;;;;;;;5011209;28;20088;-71
2023/07/27 00:17:03;;;;;;;6.15;4.75;;;;;;;;;;5013464;28;20042;-72
2023/07/27 00:19:29;;;;;;;7.78;4.85;;;;;;;;;;5013314;28;20151;-71
2023/07/27 00:21:55;;;;;;;7.45;5.20;;;;;;;;;;5012472;28;20494;-72
2023/07/27 00:24:21;;;;;;;5.82;4.60;;;;;;;;;;5000369;28;20092;-71
2023/07/27 00:26:47;;;;;;;5.95;4.70;;;;;;;;;;5011148;28;20500;-72
2023/07/27 00:29:13;;;;;;;5.60;4.13;;;;;;;;;;5011404;28;20096;-72
2023/07/27 00:31:39;;;;;;;7.28;5.10;;;;;;;;;;5011336;28;20065;-71
2023/07/27 00:34:05;;;;;;;6.78;4.40;;;;;;;;;;5009108;28;20092;-72
2023/07/27 00:36:31;;;;;;;7.20;5.10;;;;;;;;;;5000495;28;20040;-72
2023/07/27 00:38:57;;;;;;;9.77;5.00;;;;;;;;;;5002818;28;20052;-72
2023/07/27 00:41:23;;;;;;;8.68;4.90;;;;;;;;;;5001494;28;20047;-72
2023/07/27 00:43:49;;;;;;;8.85;5.50;;;;;;;;;;5003708;28;20045;-72
2023/07/27 00:46:16;;;;;;;6.38;4.72;;;;;;;;;;5004374;28;20418;-72
2023/07/27 00:48:42;;;;;;;9.55;4.97;;;;;;;;;;4995583;28;20458;-71
2023/07/27 00:51:08;;;;;;;6.97;4.47;;;;;;;;;;4998850;28;20057;-72
2023/07/27 00:53:35;;;;;;;11.50;5.15;;;;;;;;;;4992641;28;20057;-72
2023/07/27 00:56:01;;;;;;;7.05;4.97;;;;;;;;;;4996433;28;20056;-72
2023/07/27 00:58:28;;;;;;;8.27;5.03;;;;;;;;;;4998119;28;20487;-71
2023/07/27 01:00:54;;;;;;;6.25;5.50;;;;;;;;;;5000577;28;20129;-71
2023/07/27 01:03:20;;;;;;;7.93;5.43;;;;;;;;;;5000701;28;20045;-72
2023/07/27 01:05:46;;;;;;;8.07;5.35;;;;;;;;;;4999413;28;20093;-72
2023/07/27 01:08:12;;;;;;;8.52;5.72;;;;;;;;;;5002106;28;20037;-72
2023/07/27 01:10:41;;;;;;;7.85;5.35;;;;;;;;;;5000289;28;20060;-72
2023/07/27 01:13:27;;;;;;;7.82;5.35;;;;;;;;;;4998076;28;20129;-72
2023/07/27 01:15:59;;;;;;;8.20;5.80;;;;;;;;;;4977744;28;20449;-72
2023/07/27 01:18:33;;;;;;;7.72;6.28;;;;;;;;;;5004967;28;20096;-72
2023/07/27 01:21:04;;;;;;;10.00;6.03;;;;;;;;;;5010597;28;20038;-71
2023/07/27 01:23:33;;;;;;;7.47;6.28;;;;;;;;;;5008426;28;20033;-72
2023/07/27 01:26:14;;;;;;;10.60;6.03;;;;;;;;;;5010871;28;20046;-72
2023/07/27 01:29:04;;;;;;;7.28;5.97;;;;;;;;;;5007084;28;20056;-72
2023/07/27 01:31:41;;;;;;;9.27;6.47;;;;;;;;;;5007172;28;20045;-72
2023/07/27 01:34:09;;;;;;;9.27;6.10;;;;;;;;;;5010195;28;20165;-71
2023/07/27 01:36:40;;;;;;;9.05;6.40;;;;;;;;;;5009416;28;20081;-71
2023/07/27 01:39:08;;;;;;;11.23;6.40;;;;;;;;;;5008551;28;20054;-71
2023/07/27 01:41:36;;;;;;;11.25;6.93;;;;;;;;;;5011147;28;20814;-72
2023/07/27 01:44:02;;;;;;;9.55;6.65;;;;;;;;;;5010861;28;20046;-71
2023/07/27 01:46:32;;;;;;;9.63;6.80;;;;;;;;;;5009152;28;20045;-71
2023/07/27 01:49:00;;;;;;;9.77;6.40;;;;;;;;;;5010594;28;20072;-71
2023/07/27 01:51:27;;;;;;;9.73;6.25;;;;;;;;;;5003558;28;20050;-72
2023/07/27 01:53:54;;;;;;;9.07;6.30;;;;;;;;;;4999957;28;20132;-71
2023/07/27 01:56:21;;;;;;;8.27;6.03;;;;;;;;;;5013717;28;20049;-72
2023/07/27 01:58:47;;;;;;;10.93;6.70;;;;;;;;;;4992701;28;20049;-72
2023/07/27 02:01:13;;;;;;;8.85;6.03;;;;;;;;;;4996981;28;20385;-71
2023/07/27 02:03:39;;;;;;;7.60;5.97;;;;;;;;;;5001753;28;20038;-72
2023/07/27 02:06:05;;;;;;;8.23;5.13;;;;;;;;;;4994035;28;20058;-72
2023/07/27 02:08:31;;;;;;;7.25;5.25;;;;;;;;;;4996510;28;20057;-71
2023/07/27 02:11:03;;;;;;;8.30;6.00;;;;;;;;;;4997592;28;20057;-71
2023/07/27 02:13:35;;;;;;;9.52;5.90;;;;;;;;;;4997623;28;20057;-72
2023/07/27 02:16:13;;;;;;;8.53;6.33;;;;;;;;;;5000703;28;20049;-71
2023/07/27 02:18:41;;;;;;;10.07;6.30;;;;;;;;;;4994573;28;20068;-71
2023/07/27 02:21:08;;;;;;;10.13;6.18;;;;;;;;;;5001146;28;20092;-72
2023/07/27 02:23:34;;;;;;;9.13;6.05;;;;;;;;;;4993423;28;20648;-71
2023/07/27 02:26:00;;;;;;;8.32;6.47;;;;;;;;;;4996218;28;20045;-71
2023/07/27 02:28:28;;;;;;;10.25;6.70;;;;;;;;;;4994474;28;20115;-72
2023/07/27 02:30:54;;;;;;;11.80;6.43;;;;;;;;;;4992317;28;20081;-71
2023/07/27 02:33:20;;;;;;;11.50;6.35;;;;;;;;;;5002259;28;20046;-71
2023/07/27 02:35:46;;;;;;;10.02;6.00;;;;;;;;;;4995811;28;20054;-71
2023/07/27 02:38:12;;;;;;;10.65;6.00;;;;;;;;;;5003402;28;20137;-71
2023/07/27 02:40:38;;;;;;;11.75;6.60;;;;;;;;;;4999905;28;20463;-72
2023/07/27 02:43:04;;;;;;;10.23;5.90;;;;;;;;;;4998766;28;20576;-71
2023/07/27 02:45:32;;;;;;;8.90;5.60;;;;;;;;;;4997046;28;20120;-72
2023/07/27 02:47:58;;;;;;;10.23;6.18;;;;;;;;;;5003810;28;20043;-71
2023/07/27 02:50:24;;;;;;;10.73;5.82;;;;;;;;;;5009312;28;20504;-71
2023/07/27 02:52:50;;;;;;;9.15;5.68;;;;;;;;;;5011251;28;20038;-71
2023/07/27 02:55:16;;;;;;;11.68;5.90;;;;;;;;;;5014371;28;20117;-71
2023/07/27 02:57:42;;;;;;;10.23;5.60;;;;;;;;;;5013103;28;20077;-71
2023/07/27 03:00:09;;;;;;;11.05;6.82;;;;;;;;;;5013105;28;20046;-71
2023/07/27 03:02:35;;;;;;;9.45;6.63;;;;;;;;;;5012648;28;20065;-71
2023/07/27 03:05:02;;;;;;;11.88;6.43;;;;;;;;;;5013029;28;20107;-71
2023/07/27 03:07:28;;;;;;;11.30;6.43;;;;;;;;;;5012441;28;20466;-71
2023/07/27 03:09:54;;;;;;;10.80;6.20;;;;;;;;;;5011119;28;20493;-71
2023/07/27 03:12:20;;;;;;;12.85;6.78;;;;;;;;;;5014087;28;20517;-72
2023/07/27 03:14:46;;;;;;;12.45;6.68;;;;;;;;;;5013252;28;20489;-71
2023/07/27 03:17:12;;;;;;;15.65;7.70;;;;;;;;;;5011753;28;20073;-71
2023/07/27 03:19:39;;;;;;;16.88;7.70;;;;;;;;;;5012277;28;20077;-71
2023/07/27 03:22:05;;;;;;;16.25;7.30;;;;;;;;;;5011590;28;20084;-71
2023/07/27 03:24:31;;;;;;;10.05;6.88;;;;;;;;;;5010527;28;20192;-71
2023/07/27 03:26:57;;;;;;;12.15;7.25;;;;;;;;;;5011324;28;20064;-71
2023/07/27 03:29:23;;;;;;;13.60;7.40;;;;;;;;;;4999932;28;20098;-71
2023/07/27 03:31:49;;;;;;;15.05;7.05;;;;;;;;;;5014545;28;20069;-71
2023/07/27 03:34:15;;;;;;;10.35;6.75;;;18.90;99.90;;;;;;5015203;28;20069;-71
2023/07/27 03:36:41;;;;;;;12.02;7.07;;;16.90;99.90;;;;;;5015474;28;20499;-71
2023/07/27 03:39:07;;;;;;;9.52;6.47;;;16.70;99.90;;;;;;5005343;28;20069;-71
2023/07/27 03:41:33;;;;;;;10.48;6.50;;;16.60;99.90;;;;;;5015204;28;20482;-71
2023/07/27 03:43:59;;;;;;;9.27;6.38;;;16.60;99.90;;;;;;5016420;28;20389;-72
2023/07/27 03:46:24;;;;;;;11.68;6.97;;;16.60;99.90;;;;;;5009733;28;20038;-72
2023/07/27 03:48:51;;;;;;;8.85;6.05;;;16.60;99.90;;;;;;5024850;28;20050;-71
2023/07/27 03:51:16;;;;;;;10.00;5.40;;;16.50;99.90;;;;;;4995838;28;20129;-71
2023/07/27 03:53:42;;;;;;;12.00;5.82;;;16.50;99.90;;;;;;5010594;28;20124;-71
2023/07/27 03:56:08;;;;;;;8.18;5.07;;;16.40;99.90;;;;;;4992126;28;20054;-71
2023/07/27 03:58:34;;;;;;;6.68;5.15;;;16.40;99.90;;;;;;4995430;28;20045;-71
2023/07/27 04:01:00;;;;;;;10.77;5.03;;;16.40;99.90;;;;;;5010188;28;20042;-71
2023/07/27 04:03:25;;;;;;;7.30;4.85;;;16.40;99.90;;;;;;5027277;28;20050;-71
2023/07/27 04:05:52;;;;;;;6.55;4.60;;;16.40;99.90;;;;;;5016486;28;20160;-71
2023/07/27 04:08:18;;;;;;;7.68;5.57;;;16.40;99.90;;;;;;5022091;28;20042;-71
2023/07/27 04:10:44;;;;;;;7.15;4.82;;;16.40;99.90;;;;;;5001753;28;20121;-71
2023/07/27 04:13:10;;;;;;;7.22;4.95;;;16.30;99.90;;;;;;5032768;28;20136;-72
2023/07/27 04:15:39;;;;;;;8.18;5.07;;;16.30;99.90;;;;;;5014591;28;20493;-71
2023/07/27 04:18:05;;;;;;;7.28;5.18;;;16.40;99.90;;;;;;5020022;28;20136;-71
2023/07/27 04:20:31;;;;;;;8.00;4.85;;;16.40;99.90;;;;;;5011556;28;20050;-71
2023/07/27 04:22:57;;;;;;;7.65;4.95;;;16.40;99.90;;;;;;4994342;28;20049;-71
2023/07/27 04:25:23;;;;;;;7.45;5.57;;;16.40;99.90;;;;;;5013281;28;20495;-72
2023/07/27 04:27:50;;;;;;;7.85;5.28;;;16.50;99.90;;;;;;5019593;28;20042;-71
2023/07/27 04:30:16;;;;;;;8.98;6.10;;;16.50;99.90;;;;;;5010538;28;20113;-71
2023/07/27 04:32:42;;;;;;;9.55;6.05;;;16.50;99.90;;;;;;5028114;28;20132;-71
2023/07/27 04:35:08;;;;;;;10.93;6.18;;;16.50;99.90;;;;;;5022562;28;20077;-71
2023/07/27 04:37:33;;;;;;;10.23;6.10;;;16.50;99.90;;;;;;4994375;28;20070;-71
2023/07/27 04:39:59;;;;;;;8.52;6.25;;;16.50;99.90;;;;;;5026215;28;20045;-71
2023/07/27 04:42:25;;;;;;;8.82;6.35;;;16.50;99.90;;;;;;5031112;28;20068;-71
2023/07/27 04:44:50;;;;;;;11.52;6.85;;;16.50;99.90;;;;;;5031611;28;20477;-71
2023/07/27 04:47:16;;;;;;;10.30;6.60;;;16.50;99.90;;;;;;5020435;28;20034;-71
2023/07/27 04:49:42;;;;;;;10.52;7.05;;;16.50;99.90;;;;;;5018707;28;20479;-72
2023/07/27 04:52:07;;;;;;;10.57;6.80;;;16.50;99.90;;;;;;5022064;28;20177;-72
2023/07/27 04:54:33;;;;;;;12.75;8.30;;;16.50;99.90;;;;;;5004638;28;20144;-71
2023/07/27 04:56:59;;;;;;;11.10;7.65;;;16.40;99.90;;;;;;5020494;28;20470;-71
2023/07/27 04:59:24;;;;;;;11.07;8.07;;;16.40;99.90;;;;;;5021792;28;20107;-71
2023/07/27 05:01:50;;;;;;;10.48;7.15;;;16.40;99.90;;;;;;5022169;28;20406;-72
2023/07/27 05:04:15;;;;;;;9.88;7.30;;;16.40;99.90;;;;;;5001784;28;20060;-72
2023/07/27 05:06:42;;;;;;;9.98;7.50;;;16.40;99.90;;;;;;5007757;28;20034;-71
2023/07/27 05:09:08;;;;;;;10.20;7.63;;;16.50;99.90;;;;;;5029421;28;20072;-71
2023/07/27 05:11:34;;;;;;;12.85;7.97;;;16.50;99.90;;;;;;5005528;28;20623;-71
2023/07/27 05:14:00;;;;;;;10.80;8.02;;;16.50;99.90;;;;;;5029035;28;20045;-71
2023/07/27 05:16:26;;;;;;;12.50;8.98;;;16.50;99.90;;;;;;5023676;28;20481;-72
2023/07/27 05:18:52;;;;;;;11.68;8.10;;;16.50;99.90;;;;;;5013244;28;20072;-71
2023/07/27 05:21:18;;;;;;;11.80;8.68;;;16.50;99.90;;;;;;5014756;28;20496;-72
2023/07/27 05:23:44;;;;;;;13.75;10.02;;;16.50;99.90;;;;;;5009018;28;20132;-72
2023/07/27 05:26:09;;;;;;;11.48;8.73;;;16.50;99.90;;;;;;5013997;28;20038;-72
2023/07/27 05:28:35;;;;;;;12.73;8.77;;;16.50;99.90;;;;;;4995613;28;20065;-71
2023/07/27 05:31:01;;;;;;;12.07;10.23;;;16.50;99.90;;;;;;4987523;28;20057;-71
2023/07/27 05:33:26;;;;;;;15.55;10.07;;;16.50;99.90;;;;;;4990713;28;20046;-71
2023/07/27 05:35:52;;;;;;;10.98;9.10;;;16.60;99.90;;;;;;4974046;28;20105;-71
2023/07/27 05:38:18;;;;;;;13.05;9.57;;;16.60;99.90;;;;;;4991144;28;20046;-71
2023/07/27 05:40:43;;;;;;;12.35;9.00;;;16.60;99.90;;;;;;4979878;28;20406;-71
2023/07/27 05:43:09;;;;;;;13.98;9.70;;;16.60;99.90;;;;;;4990656;28;20511;-71
2023/07/27 05:45:37;;;;;;;15.35;11.55;;;16.60;99.90;;;;;;4988958;28;20042;-71
2023/07/27 05:48:08;;;;;;;16.10;11.07;;;16.60;99.90;;;;;;4980033;28;20483;-71
2023/07/27 05:50:34;;;;;;;16.23;11.93;;;16.60;99.90;;;;;;4990838;28;20051;-71
2023/07/27 05:53:00;;;;;;;16.50;11.93;;;16.70;99.90;;;;;;4991399;28;20438;-71
2023/07/27 05:55:26;;;;;;;16.02;12.02;;;16.70;99.90;;;;;;4980596;28;20057;-71
2023/07/27 05:57:51;;;;;;;16.10;11.35;;;16.70;99.90;;;;;;4976591;28;20086;-71
2023/07/27 06:00:17;;;;;;;14.75;11.57;;;16.70;99.90;;;;;;4981724;28;20459;-72
2023/07/27 06:02:43;;;;;;;15.88;10.75;;;16.70;99.90;;;;;;4985649;28;20398;-71
2023/07/27 06:05:10;;;;;;;16.85;10.63;;;16.70;99.90;;;;;;4991752;28;20406;-71
2023/07/27 06:07:36;;;;;;;12.85;9.70;;;16.60;99.90;;;;;;4961515;28;20054;-71
2023/07/27 06:10:02;;;;;;;14.57;10.05;;;16.60;99.90;;;;;;4984383;28;20045;-71
2023/07/27 06:12:27;;;;;;;48.00;13.52;;;16.50;99.90;;;;;;4990100;28;20096;-71
2023/07/27 06:14:53;;;;;;;214.25;27.73;;;16.50;99.90;;;;;;4980647;28;20843;-71
2023/07/27 06:17:19;;;;;;;96.38;17.40;;;16.50;99.90;;;;;;4976493;28;20522;-71
2023/07/27 06:19:44;;;;;;;33.35;11.25;;;16.40;99.90;;;;;;4968999;28;20097;-71
2023/07/27 06:22:10;;;;;;;114.35;22.13;;;16.40;99.90;;;;;;4988205;28;20092;-71
2023/07/27 06:24:35;;;;;;;75.90;15.88;;;16.50;99.90;;;;;;4975515;28;20058;-71
2023/07/27 06:27:01;;;;;;;20.55;8.93;;;16.50;99.90;;;;;;4980182;28;20100;-71
2023/07/27 06:29:27;;;;;;;13.57;7.47;;;16.50;99.90;;;;;;5013779;28;20085;-71
2023/07/27 06:31:52;;;;;;;11.48;7.68;;;16.50;99.90;;;;;;5012520;28;20540;-71
2023/07/27 06:34:18;;;;;;;9.88;6.78;;;16.50;99.90;;;;;;5012952;28;20049;-71
2023/07/27 06:36:43;;;;;;;9.73;7.30;;;16.50;99.90;;;;;;5014603;28;20129;-71
2023/07/27 06:39:09;;;;;;;23.63;9.00;;;16.50;99.90;;;;;;5014141;28;20073;-71
2023/07/27 06:41:35;;;;;;;347.90;44.42;;;16.60;99.90;;;;;;5010913;28;20481;-71
2023/07/27 06:44:01;;;;;;;205.23;30.17;;;;;;;;;;4996639;28;20054;-71
2023/07/27 06:46:27;;;;;;;117.55;20.88;;;;;;;;;;5011972;28;20054;-71
2023/07/27 06:48:53;;;;;;;23.40;8.27;;;16.60;99.90;;;;;;5010623;28;20046;-71
2023/07/27 06:51:19;;;;;;;12.82;7.35;;;16.70;99.90;;;;;;5012465;28;20085;-71
2023/07/27 06:53:45;;;;;;;15.27;7.50;;;16.70;99.90;;;;;;5011187;28;20080;-71
2023/07/27 06:56:11;;;;;;;12.77;7.03;;;16.60;99.90;;;;;;5004027;28;20054;-71
2023/07/27 06:58:37;;;;;;;13.45;7.82;;;16.60;99.90;;;;;;4996940;28;20120;-71
2023/07/27 07:01:02;;;;;;;10.45;7.13;;;16.60;99.90;;;;;;5012938;28;20124;-71
2023/07/27 07:03:28;;;;;;;12.13;7.25;;;16.70;99.90;;;;;;5013978;28;20045;-71
2023/07/27 07:05:54;;;;;;;14.15;7.47;;;16.70;99.90;;;;;;5013834;28;20038;-71
2023/07/27 07:08:19;;;;;;;11.98;7.00;;;16.60;99.90;;;;;;5015113;28;20125;-71
2023/07/27 07:10:45;;;;;;;14.75;10.15;;;;;;;;;;5012696;28;20056;-77
2023/07/27 07:13:11;;;;;;;11.15;7.28;;;16.60;99.90;;;;;;5013308;28;20046;-71
2023/07/27 07:15:37;;;;;;;8.88;6.25;;;16.60;99.90;;;;;;5009408;28;20046;-71
2023/07/27 07:18:03;;;;;;;8.35;6.50;;;16.60;99.90;;;;;;5011946;28;20128;-71
2023/07/27 07:20:28;;;;;;;8.45;7.05;;;16.60;99.90;;;;;;5011705;28;20042;-71
2023/07/27 07:22:54;;;;;;;9.40;6.57;;;16.60;99.90;;;;;;5012385;28;20493;-71
2023/07/27 07:25:20;;;;;;;9.48;7.10;;;16.60;99.90;;;;;;5008771;28;20053;-71
2023/07/27 07:27:45;;;;;;;10.65;6.80;;;16.70;99.90;;;;;;5010242;28;20516;-71
2023/07/27 07:30:11;;;;;;;9.25;6.53;;;;;;;;;;5012447;28;20049;-71
2023/07/27 07:32:37;;;;;;;6.78;5.57;;;16.70;99.90;;;;;;5011417;28;20050;-71
2023/07/27 07:35:03;;;;;;;8.63;5.75;;;16.70;99.90;;;;;;5007366;28;20088;-71
2023/07/27 07:37:29;;;;;;;6.80;5.93;;;16.70;99.90;;;;;;5010453;28;20045;-71
2023/07/27 07:39:55;;;;;;;8.73;6.07;;;16.70;99.90;;;;;;5012329;28;20053;-71
2023/07/27 07:42:21;;;;;;;7.85;6.30;;;16.70;99.90;;;;;;5012190;28;20504;-71
2023/07/27 07:44:47;;;;;;;7.63;6.25;;;16.70;99.90;;;;;;5013242;28;20076;-71
2023/07/27 07:47:12;;;;;;;8.05;6.28;;;16.70;99.90;;;;;;5010237;28;20037;-71
2023/07/27 07:49:38;;;;;;;9.90;6.70;;;16.70;99.90;;;;;;5012072;28;20465;-71
2023/07/27 07:52:04;;;;;;;7.15;5.68;;;16.70;99.90;;;;;;5011136;28;20394;-72
2023/07/27 07:54:30;;;;;;;7.53;5.95;;;16.70;99.90;;;;;;5009983;28;20057;-72
2023/07/27 07:56:56;;;;;;;11.05;6.78;;;16.70;99.90;;;;;;5010229;28;20054;-72
2023/07/27 07:59:22;;;;;;;8.43;6.20;;;16.70;99.90;;;;;;5011265;28;20096;-72
2023/07/27 08:01:49;;;;;;;6.93;6.00;;;16.70;99.90;;;;;;5011915;28;20339;-71
2023/07/27 08:04:15;;;;;;;8.10;6.65;;;16.80;99.90;;;;;;5012384;28;20406;-72
2023/07/27 08:06:40;;;;;;;7.57;6.10;;;16.80;99.90;;;;;;5008459;28;20052;-72
2023/07/27 08:09:08;;;;;;;8.32;6.00;;;16.80;99.90;;;;;;5005653;28;20030;-72
2023/07/27 08:11:34;;;;;;;6.72;5.65;;;16.90;99.90;;;;;;5004616;28;20053;-71
2023/07/27 08:14:02;;;;;;;6.72;5.82;;;;;;;;;;5010286;28;20038;-71
2023/07/27 08:16:31;;;;;;;6.78;6.07;;;16.90;99.90;;;;;;5011427;28;20053;-71
2023/07/27 08:18:57;;;;;;;8.13;6.00;;;16.90;99.90;;;;;;5003819;28;20038;-71
2023/07/27 08:21:23;;;;;;;6.57;5.55;;;16.80;99.90;;;;;;5029127;28;20061;-71
2023/07/27 08:23:48;;;;;;;6.80;6.10;;;17.00;99.90;;;;;;5010124;28;20038;-72
2023/07/27 08:26:15;;;;;;;7.38;6.00;;;;;;;;;;5011057;28;20049;-71
2023/07/27 08:28:41;;;;;;;7.20;6.28;;;16.80;99.90;;;;;;5010287;28;20053;-72
2023/07/27 08:31:07;;;;;;;9.05;6.05;;;;;;;;;;5011892;28;20045;-72
2023/07/27 08:33:33;;;;;;;7.55;6.05;;;17.00;99.90;;;;;;5009963;28;20042;-71
2023/07/27 08:36:02;;;;;;;7.07;6.25;;;17.10;99.90;;;;;;5012281;28;20045;-71
2023/07/27 08:38:28;;;;;;;6.72;6.03;;;16.90;99.90;;;;;;5010172;28;20449;-71
2023/07/27 08:41:01;;;;;;;7.97;6.45;;;17.10;99.90;;;;;;5011100;28;20061;-71
2023/07/27 08:43:27;;;;;;;8.55;5.97;;;17.10;99.90;;;;;;5011055;28;20126;-71
2023/07/27 08:45:54;;;;;;;7.93;6.25;;;17.10;99.90;;;;;;5010455;28;20498;-71
2023/07/27 08:48:20;;;;;;;8.63;6.45;;;17.20;99.90;;;;;;5008610;28;20064;-71
2023/07/27 08:50:47;;;;;;;8.55;6.47;;;17.30;99.90;;;;;;5009768;28;20077;-71
2023/07/27 08:53:14;;;;;;;9.85;6.60;;;;;;;;;;5008917;28;20050;-72
2023/07/27 08:55:40;;;;;;;8.25;6.78;;;;;;;;;;5008651;28;20042;-71
2023/07/27 08:58:06;;;;;;;8.30;6.63;;;;;;;;;;5012652;28;20100;-71
2023/07/27 09:00:34;;;;;;;8.40;6.60;;;;;;;;;;5011246;28;20046;-72
2023/07/27 09:03:02;;;;;;;8.07;6.55;;;17.30;99.90;;;;;;5011473;28;20113;-72
2023/07/27 09:05:55;;;;;;;9.75;6.57;;;;;;;;;;5024918;28;20065;-72
2023/07/27 09:08:21;;;;;;;9.48;6.65;;;;;;;;;;5007525;28;20054;-72
2023/07/27 09:10:47;;;;;;;6.95;6.25;;;;;;;;;;5007401;28;20052;-71
2023/07/27 09:13:13;;;;;;;7.93;6.28;;;;;;;;;;5011518;28;20057;-72
2023/07/27 09:15:45;;;;;;;6.82;6.13;;;;;;;;;;5009404;28;20064;-71
2023/07/27 09:18:13;;;;;;;6.90;6.17;;;;;;;;;;5007970;28;20034;-71
2023/07/27 09:20:43;;;;;;;9.93;6.30;;;;;;;;;;5010247;28;20041;-71
2023/07/27 09:23:09;;;;;;;7.10;6.20;;;;;;;;;;5011605;28;20088;-72
2023/07/27 09:25:39;;;;;;;9.43;6.60;;;;;;;;;;5009197;28;20343;-72
2023/07/27 09:28:06;;;;;;;11.68;6.75;;;;;;;;;;5000172;28;20061;-71
2023/07/27 09:30:35;;;;;;;8.00;6.80;;;;;;;;;;5007489;28;20037;-71
2023/07/27 09:33:05;;;;;;;13.43;6.43;;;;;;;;;;5010291;28;20413;-72
2023/07/27 09:35:31;;;;;;;12.82;6.25;;;;;;;;;;5011505;28;20053;-71
2023/07/27 09:37:57;;;;;;;6.47;5.88;;;;;;;;;;5004961;28;20046;-71
2023/07/27 09:40:24;;;;;;;8.23;5.70;;;;;;;;;;5006587;28;20046;-71
2023/07/27 09:42:50;;;;;;;6.00;5.32;;;;;;;;;;5009799;28;20176;-71
2023/07/27 09:45:16;;;;;;;7.82;5.45;;;;;;;;;;5005162;28;20136;-71
2023/07/27 09:47:42;;;;;;;5.45;4.65;;;;;;;;;;5008689;28;20124;-71
2023/07/27 09:50:09;;;;;;;7.47;4.95;;;;;;;;;;5008978;28;20045;-71
2023/07/27 09:52:38;;;;;;;4.70;4.30;;;;;;;;;;4994823;28;20099;-72
2023/07/27 09:55:04;;;;;;;4.40;4.03;;;;;;;;;;5004552;28;20113;-71
2023/07/27 09:57:30;;;;;;;5.53;4.43;;;;;;;;;;5008615;28;20042;-71
2023/07/27 09:59:56;;;;;;;4.38;4.03;;;;;;;;;;5007830;28;20494;-72
2023/07/27 10:02:23;;;;;;;4.10;3.70;;;;;;;;;;5013881;28;20049;-71
2023/07/27 10:04:52;;;;;;;5.68;3.80;;;;;;;;;;5011392;28;20367;-71
2023/07/27 10:07:19;;;;;;;4.10;3.80;;;;;;;;;;5015913;28;20049;-71
2023/07/27 10:09:45;;;;;;;3.67;3.38;;;;;;;;;;5007053;28;20510;-71
2023/07/27 10:12:11;;;;;;;3.70;3.40;;;;;;;;;;5011706;28;20045;-71
2023/07/27 10:14:40;;;;;;;4.15;3.85;;;;;;;;;;5014053;28;20060;-72
2023/07/27 10:17:07;;;;;;;4.30;4.00;;;;;;;;;;5014138;28;20049;-72
2023/07/27 10:19:41;;;;;;;4.60;4.20;;;;;;;;;;5010880;28;20037;-71
2023/07/27 10:22:15;;;;;;;5.28;4.82;;;;;;;;;;5013384;28;20038;-71
2023/07/27 10:24:41;;;;;;;;;;;;;;;;;;5014481;28;20438;-72
2023/07/27 10:27:07;;;;;;;4.10;3.80;;;;;;;;;;5009246;28;19976;-72
2023/07/27 10:29:33;;;;;;;3.75;3.45;;;;;;;;;;5013412;28;20038;-72
2023/07/27 10:32:00;;;;;;;3.97;3.67;;;;;;;;;;5014028;28;20509;-72
2023/07/27 10:34:27;;;;;;;3.28;3.08;;;;;;;;;;5013971;28;20081;-72
2023/07/27 10:36:58;;;;;;;2.85;2.65;;;;;;;;;;5012321;28;20041;-72
2023/07/27 10:39:44;;;;;;;3.53;3.22;;;;;;;;;;5014135;28;20057;-72
2023/07/27 10:42:12;;;;;;;3.90;2.80;;;;;;;;;;5013452;28;20401;-72
2023/07/27 10:44:41;;;;;;;2.70;2.60;;;;;;;;;;5008867;28;20121;-72
2023/07/27 10:47:11;;;;;;;2.40;2.20;;;;;;;;;;5013603;28;20516;-72
2023/07/27 10:49:47;;;;;;;2.60;2.40;;;;;;;;;;5013916;28;20100;-72
2023/07/27 10:52:18;;;;;;;2.10;2.00;;;;;;;;;;5011979;28;20088;-72
2023/07/27 10:54:45;;;;;;;2.42;2.30;;;;;;;;;;5011182;28;20516;-72
2023/07/27 10:57:11;;;;;;;4.55;2.83;;;;;;;;;;5014484;28;20042;-72
2023/07/27 10:59:39;;;;;;;2.67;2.40;;;;;;;;;;5005465;28;20555;-72
2023/07/27 11:02:06;;;;;;;3.00;2.80;;;;;;;;;;4996956;28;20077;-72
2023/07/27 11:04:34;;;;;;;2.40;2.30;;;;;;;;;;5006681;28;20034;-72
2023/07/27 11:07:00;;;;;;;3.78;2.40;;;;;;;;;;5008898;28;20045;-72
2023/07/27 11:09:26;;;;;;;3.03;2.83;;;;;;;;;;5013285;28;20096;-73
2023/07/27 11:12:00;;;;;;;2.40;2.30;;;;;;;;;;5013968;28;20100;-72
2023/07/27 11:14:26;;;;;;;2.10;2.00;;;;;;;;;;5012186;28;20062;-73
2023/07/27 11:16:53;;;;;;;1.80;1.70;;;;;;;;;;5008905;28;20426;-72
2023/07/27 11:19:19;;;;;;;2.50;2.30;;;;;;;;;;5011881;28;20046;-72
2023/07/27 11:21:45;;;;;;;2.47;2.00;;;;;;;;;;5009184;28;20379;-72
2023/07/27 11:24:11;;;;;;;2.50;2.30;;;;;;;;;;5008611;28;20030;-72
2023/07/27 11:26:38;;;;;;;2.00;1.83;;;;;;;;;;5008708;28;20042;-72
2023/07/27 11:29:05;;;;;;;2.85;2.08;;;;;;;;;;4997626;28;20057;-72
2023/07/27 11:31:31;;;;;;;2.05;1.95;;;;;;;;;;4996492;28;20054;-72
2023/07/27 11:33:58;;;;;;;1.90;1.80;;;;;;;;;;5027858;28;20050;-72
2023/07/27 11:36:29;;;;;;;1.63;1.52;;;;;;;;;;5013413;28;20056;-72
2023/07/27 11:38:55;;;;;;;1.40;1.40;;;;;;;;;;5011169;28;20053;-72
2023/07/27 11:41:22;;;;;;;1.77;1.67;;;;;;;;;;5013935;28;20050;-72
2023/07/27 11:43:51;;;;;;;4.82;4.43;;;;;;;;;;5011848;28;20509;-72
2023/07/27 11:46:17;;;;;;;2.78;1.80;;;;;;;;;;5013182;28;20042;-72
2023/07/27 11:48:43;;;;;;;2.03;1.85;;;;;;;;;;5007204;28;20077;-72
2023/07/27 11:51:09;;;;;;;2.47;1.90;;;;;;;;;;5006554;28;20042;-72
2023/07/27 11:53:35;;;;;;;3.22;1.70;;;;;;;;;;5009066;28;20048;-72
2023/07/27 11:56:08;;;;;;;2.58;1.50;;;;;;;;;;5012494;28;20042;-72
2023/07/27 11:58:34;;;;;;;1.60;1.50;;;;;;;;;;5012754;28;20054;-72
2023/07/27 12:01:00;;;;;;;1.63;1.50;;;;;;;;;;5010348;28;20076;-73
2023/07/27 12:03:26;;;;;;;2.03;1.40;;;;;;;;;;5010409;28;20048;-72
2023/07/27 12:05:56;;;;;;;4.10;1.80;;;;;;;;;;5011626;28;20041;-72
2023/07/27 12:08:23;;;;;;;3.92;1.70;;;;;;;;;;5010436;28;20456;-72
2023/07/27 12:10:56;;;;;;;2.67;1.52;;;;;;;;;;5007588;28;20112;-72
2023/07/27 12:13:22;;;;;;;1.90;1.67;;;;;;;;;;5006064;28;20105;-72
2023/07/27 12:15:56;;;;;;;1.85;1.70;;;;;;;;;;4998717;28;20099;-72
2023/07/27 12:18:24;;;;;;;3.40;1.70;;;;;;;;;;5008067;28;20119;-72
2023/07/27 12:20:50;;;;;;;1.98;1.70;;;;;;;;;;5010662;28;20115;-72
2023/07/27 12:23:17;;;;;;;9.00;2.08;;;;;;;;;;5010347;28;20050;-72
2023/07/27 12:25:43;;;;;;;1.50;1.35;;;;;;;;;;5011515;28;20052;-73
2023/07/27 12:28:09;;;;;;;2.22;1.60;;;;;;;;;;5008948;28;20108;-73
2023/07/27 12:30:35;;;;;;;3.42;1.88;;;;;;;;;;5011355;28;20489;-72
2023/07/27 12:33:01;;;;;;;2.53;1.80;;;;;;;;;;5012571;28;20553;-72
2023/07/27 12:35:30;;;;;;;1.95;1.60;;;;;;;;;;5012486;28;20128;-72
2023/07/27 12:37:58;;;;;;;2.58;1.77;;;;;;;;;;5010544;28;20076;-72
2023/07/27 12:40:25;;;;;;;1.70;1.60;;;;;;;;;;5007618;28;20370;-72
2023/07/27 12:42:51;;;;;;;2.72;1.80;;;;;;;;;;5004896;28;20048;-72
2023/07/27 12:45:19;;;;;;;2.00;1.70;;;;;;;;;;5005602;28;20054;-72
2023/07/27 12:47:45;;;;;;;1.63;1.52;;;;;;;;;;5009645;28;20068;-73
2023/07/27 12:50:12;;;;;;;3.38;2.03;;;;;;;;;;5012049;28;20052;-72
2023/07/27 12:52:38;;;;;;;3.22;2.10;;;;;;;;;;5009608;28;20060;-73
2023/07/27 12:55:05;;;;;;;2.47;1.80;;;;;;;;;;5010040;28;20486;-72
2023/07/27 12:57:31;;;;;;;2.20;2.00;;;;;;;;;;5009930;28;20581;-73
2023/07/27 12:59:57;;;;;;;1.90;1.80;;;;;;;;;;5008175;28;20125;-72
2023/07/27 13:02:26;;;;;;;2.17;2.00;;;;;;;;;;5005617;28;20146;-72
2023/07/27 13:04:52;;;;;;;2.47;1.80;;;;;;;;;;5011689;28;20068;-72
2023/07/27 13:07:18;;;;;;;2.00;1.90;;;;;;;;;;5008842;28;20053;-72
2023/07/27 13:09:44;;;;;;;22.55;4.32;;;;;;;;;;5009576;28;20095;-73
2023/07/27 13:12:10;;;;;;;2.13;1.75;;;;;;;;;;5012043;28;20087;-72
2023/07/27 13:14:36;;;;;;;2.00;1.80;;;;;;;;;;5007907;28;20088;-72
2023/07/27 13:17:03;;;;;;;2.20;1.83;;;;;;;;;;5011978;28;20053;-72
2023/07/27 13:19:29;;;;;;;3.00;1.95;;;;;;;;;;5008894;28;20046;-72
2023/07/27 13:21:56;;;;;;;3.80;2.13;;;;;;;;;;5011214;28;20042;-72
2023/07/27 13:24:22;;;;;;;2.17;1.98;;;;;;;;;;5003924;28;20478;-72
2023/07/27 13:26:49;;;;;;;2.58;1.80;;;;;;;;;;4994753;28;20389;-73
2023/07/27 13:29:15;;;;;;;1.60;1.50;;;;;;;;;;5006145;28;20038;-72
2023/07/27 13:31:42;;;;;;;1.88;1.63;;;;;;;;;;5008252;28;20064;-72
2023/07/27 13:34:08;;;;;;;1.70;1.58;;;;;;;;;;5010401;28;20135;-72
2023/07/27 13:36:34;;;;;;;1.65;1.55;;;;;;;;;;5008952;28;20042;-72
2023/07/27 13:39:00;;;;;;;1.80;1.67;;;;;;;;;;5006604;28;20037;-73
2023/07/27 13:41:26;;;;;;;1.38;1.30;;;;;;;;;;5011048;28;20572;-73
2023/07/27 13:43:54;;;;;;;1.52;1.48;;;;;;;;;;5010711;28;20064;-72
2023/07/27 13:46:22;;;;;;;1.70;1.60;;;;;;;;;;5008716;28;20458;-72
2023/07/27 13:48:48;;;;;;;1.30;1.30;;;;;;;;;;5007557;28;20093;-73